Lake Quivira, Kansas
Current Conditions -  °F | °C
As of 9:53 AM on Friday 28 Nov 2014 (Local Time) from KOJC Reporting Station
Clear Clear  
Wind Chill: 37°   Ceiling: Unl
Heat Index: 44°   Visibility: 10mi
Dew Point: 28°   Wind: 14mph
Humidity: 53%   Direction: 200°SSW
Pressure: 29.96"   Gusts: 23mph
Location:  39.0067°N, 94.7872°W
Report Text: KOJC 281553Z 20012G20KT 10SM CLR 07/M02 A2996 RMK AO2 SLP152 T00671022
Loading
Personal Weather Stations






























Interactive Weather Map New forecast layout! Learn more

10-Day Weather Forecast

Advertisements
Track Severe Weather on mobile